createdAt,value
2019-04-23T00:01:36.333Z,37.51
2019-04-23T00:04:08.537Z,36.89
2019-04-23T00:06:43.218Z,36.52
2019-04-23T00:09:27.438Z,36.78
2019-04-23T00:11:48.239Z,36.81
2019-04-23T00:14:20.360Z,37.14
2019-04-23T00:16:52.605Z,37.12
2019-04-23T00:19:27.634Z,37.94
2019-04-23T00:21:57.008Z,37.88
2019-04-23T00:27:25.493Z,36.14
2019-04-23T00:29:57.630Z,36.51
2019-04-23T00:35:06.024Z,36.25
2019-04-23T00:39:57.834Z,36.95
2019-04-23T00:42:38.529Z,37.34
2019-04-23T00:45:03.419Z,37.28
2019-04-23T00:47:37.916Z,37.33
2019-04-23T00:50:12.820Z,37.84
2019-04-23T00:52:40.514Z,37.63
2019-04-23T00:55:15.916Z,37.49
2019-04-23T00:57:48.872Z,37.89
2019-04-23T01:00:26.017Z,36.98
2019-04-23T01:03:03.556Z,35.94
2019-04-23T01:05:29.408Z,35.20
2019-04-23T01:08:06.767Z,34.76
2019-04-23T01:10:34.568Z,34.18
2019-04-23T01:13:14.739Z,34.34
2019-04-23T01:18:38.225Z,35.53
2019-04-23T01:20:53.710Z,35.64
2019-04-23T01:23:41.842Z,35.17
2019-04-23T01:26:26.532Z,35.45
2019-04-23T01:29:03.423Z,35.93
2019-04-23T01:31:33.171Z,36.30
2019-04-23T01:34:13.549Z,36.63
2019-04-23T01:36:40.130Z,36.62
2019-04-23T01:39:17.813Z,36.71
2019-04-23T01:41:59.560Z,36.53
2019-04-23T01:44:32.753Z,35.38
2019-04-23T01:47:00.654Z,34.13
2019-04-23T01:49:37.684Z,34.23
2019-04-23T01:52:09.440Z,34.78
2019-04-23T01:54:38.483Z,35.27
2019-04-23T01:57:14.961Z,35.22
2019-04-23T01:59:49.383Z,35.73
2019-04-23T02:02:31.644Z,34.46
2019-04-23T02:05:01.108Z,35.10
2019-04-23T02:07:32.510Z,35.49
2019-04-23T02:12:35.721Z,36.05
2019-04-23T02:15:03.707Z,35.59
2019-04-23T02:17:38.665Z,36.52
2019-04-23T02:20:19.341Z,36.59
2019-04-23T02:23:09.833Z,37.29
2019-04-23T02:25:35.681Z,37.38
2019-04-23T02:28:06.050Z,37.28
2019-04-23T02:33:26.287Z,36.64
2019-04-23T02:35:50.179Z,36.81
2019-04-23T02:43:16.714Z,37.40
2019-04-23T02:56:15.284Z,37.84
2019-04-23T02:58:57.688Z,37.96
2019-04-23T03:03:49.668Z,37.55
2019-04-23T03:06:22.821Z,36.74
2019-04-23T03:08:46.646Z,35.95
2019-04-23T03:14:03.471Z,34.56
2019-04-23T03:37:48.951Z,36.23
2019-04-23T03:40:11.569Z,35.75
2019-04-23T03:45:36.912Z,35.05
2019-04-23T03:47:48.544Z,36.20
2019-04-23T03:50:32.553Z,35.01
2019-04-23T03:52:44.796Z,35.03
2019-04-23T03:55:48.002Z,34.92
2019-04-23T03:58:07.615Z,30.89
2019-04-23T04:00:39.639Z,30.14
2019-04-23T04:05:49.707Z,26.41
2019-04-23T04:08:18.437Z,25.57
2019-04-23T04:11:04.198Z,25.58
2019-04-23T04:13:31.050Z,25.30
2019-04-23T04:18:44.380Z,23.50
2019-04-23T04:21:09.931Z,23.75
2019-04-23T04:23:43.595Z,24.51
2019-04-23T04:26:08.982Z,23.88
2019-04-23T04:31:13.770Z,23.56
2019-04-23T04:34:00.667Z,23.38
2019-04-23T04:36:21.867Z,23.97
2019-04-23T04:44:17.089Z,24.15
2019-04-23T04:46:44.196Z,24.05
2019-04-23T04:49:01.716Z,23.50
2019-04-23T04:51:49.392Z,22.27
2019-04-23T04:56:55.018Z,21.93
2019-04-23T04:59:13.904Z,21.95
2019-04-23T05:01:58.540Z,21.42
2019-04-23T05:04:28.505Z,22.03
2019-04-23T05:12:18.923Z,21.09
2019-04-23T05:14:43.976Z,19.64
2019-04-23T05:17:16.046Z,20.46
2019-04-23T05:22:22.665Z,20.57
2019-04-23T05:24:48.286Z,19.84
2019-04-23T05:27:17.541Z,19.82
2019-04-23T05:30:02.944Z,19.40
2019-04-23T05:32:27.303Z,18.48
2019-04-23T05:35:03.510Z,19.00
2019-04-23T05:37:50.564Z,17.83
2019-04-23T05:40:24.178Z,18.48
2019-04-23T05:42:49.367Z,19.03
2019-04-23T05:45:15.867Z,19.59
2019-04-23T05:47:59.019Z,18.69
2019-04-23T05:50:35.786Z,18.01
2019-04-23T05:53:01.359Z,16.93
2019-04-23T05:55:27.263Z,17.24
2019-04-23T05:58:06.761Z,17.90
2019-04-23T06:00:44.932Z,17.80
2019-04-23T06:03:18.678Z,18.65
2019-04-23T06:08:34.589Z,19.55
2019-04-23T06:11:14.500Z,19.70
2019-04-23T06:13:35.583Z,19.47
2019-04-23T06:15:58.084Z,20.09
2019-04-23T06:18:40.608Z,19.90
2019-04-23T06:23:46.392Z,19.96
2019-04-23T06:26:26.880Z,20.67
2019-04-23T06:28:50.813Z,19.27
2019-04-23T06:31:27.740Z,19.28
2019-04-23T06:33:54.258Z,19.55
2019-04-23T06:41:41.695Z,20.63
2019-04-23T06:44:14.520Z,20.52
2019-04-23T06:49:20.116Z,20.97
2019-04-23T06:52:07.093Z,20.31
2019-04-23T06:54:37.872Z,19.76
2019-04-23T06:57:10.543Z,19.99
2019-04-23T06:59:33.553Z,20.82
2019-04-23T07:02:11.847Z,20.22
2019-04-23T07:04:49.857Z,20.04
2019-04-23T07:09:44.072Z,20.30
2019-04-23T07:12:25.770Z,20.29
2019-04-23T07:17:24.922Z,20.97
2019-04-23T07:19:56.650Z,20.27
2019-04-23T07:22:29.006Z,21.05
2019-04-23T07:27:30.334Z,20.61
2019-04-23T07:30:20.932Z,20.83
2019-04-23T07:32:44.716Z,21.15
2019-04-23T07:35:11.643Z,21.06
2019-04-23T07:37:57.072Z,21.65
2019-04-23T07:40:27.544Z,20.41
2019-04-23T07:45:53.128Z,21.66
2019-04-23T07:48:29.234Z,19.64
2019-04-23T07:51:14.103Z,19.94
2019-04-23T07:53:42.876Z,19.29
2019-04-23T07:56:11.601Z,19.86
2019-04-23T07:58:36.485Z,19.78
2019-04-23T08:01:13.793Z,20.07
2019-04-23T08:06:21.973Z,18.81
2019-04-23T08:08:56.354Z,18.91
2019-04-23T08:14:05.180Z,19.62
2019-04-23T08:16:40.234Z,17.87
2019-04-23T08:19:15.426Z,18.38
2019-04-23T08:21:37.874Z,18.69
2019-04-23T08:24:38.920Z,18.92
2019-04-23T08:27:18.146Z,18.29
2019-04-23T08:29:44.319Z,18.04
2019-04-23T08:32:18.574Z,18.63
2019-04-23T08:37:45.424Z,18.17
2019-04-23T08:40:01.886Z,17.93
2019-04-23T08:42:45.754Z,18.23
2019-04-23T08:45:27.799Z,18.12
2019-04-23T08:48:15.444Z,18.25
2019-04-23T08:50:46.705Z,18.59
2019-04-23T08:55:50.046Z,17.50
2019-04-23T08:58:27.309Z,17.78
2019-04-23T09:06:00.645Z,17.94
2019-04-23T09:08:32.903Z,17.27
2019-04-23T09:11:27.570Z,17.35
2019-04-23T09:16:15.574Z,17.71
2019-04-23T09:18:46.092Z,17.46
2019-04-23T09:21:24.000Z,18.57
2019-04-23T09:23:54.012Z,17.76
2019-04-23T09:26:22.429Z,17.72
2019-04-23T09:29:47.471Z,17.86
2019-04-23T09:32:14.855Z,17.47
2019-04-23T09:34:26.201Z,18.03
2019-04-23T09:37:06.195Z,17.92
2019-04-23T09:39:45.867Z,18.44
2019-04-23T09:42:22.625Z,18.39
2019-04-23T09:44:58.373Z,19.00
2019-04-23T09:47:53.493Z,19.00
2019-04-23T09:50:26.448Z,19.35
2019-04-23T10:03:02.424Z,19.14
2019-04-23T10:05:30.910Z,19.12
2019-04-23T10:08:02.911Z,19.60
2019-04-23T10:10:25.987Z,19.12
2019-04-23T10:12:59.946Z,19.29
2019-04-23T10:15:36.358Z,19.17
2019-04-23T10:18:04.607Z,19.38
2019-04-23T10:20:36.390Z,19.51
2019-04-23T10:23:08.352Z,19.21
2019-04-23T10:25:40.321Z,20.16
2019-04-23T10:28:25.073Z,20.36
2019-04-23T10:30:56.908Z,19.76
2019-04-23T10:33:29.634Z,20.35
2019-04-23T10:36:08.485Z,19.92
2019-04-23T10:38:36.253Z,20.35
2019-04-23T10:41:06.924Z,19.52
2019-04-23T10:43:40.001Z,20.10
2019-04-23T10:46:43.120Z,19.79
2019-04-23T10:49:41.944Z,20.57
2019-04-23T10:57:03.918Z,20.12
2019-04-23T10:59:38.917Z,19.64
2019-04-23T11:05:00.513Z,19.82
2019-04-23T11:09:55.741Z,19.98
2019-04-23T11:12:42.081Z,19.92
2019-04-23T11:17:52.034Z,20.10
2019-04-23T11:20:25.367Z,20.05
2019-04-23T11:28:02.550Z,20.14
2019-04-23T11:30:32.403Z,20.48
2019-04-23T11:33:14.795Z,20.55
2019-04-23T11:35:49.050Z,20.85
2019-04-23T11:41:09.082Z,19.68
2019-04-23T11:43:13.162Z,20.35
2019-04-23T11:51:26.314Z,20.74
2019-04-23T11:53:29.694Z,21.07
2019-04-23T11:55:55.030Z,20.69
2019-04-23T12:01:11.648Z,19.91
2019-04-23T12:03:46.856Z,20.15
2019-04-23T12:06:51.012Z,19.70
2019-04-23T12:09:09.945Z,20.13
2019-04-23T12:14:37.290Z,19.86
2019-04-23T12:17:11.214Z,19.79
2019-04-23T12:45:27.128Z,18.97
2019-04-23T12:47:58.364Z,19.16
2019-04-23T12:58:03.816Z,18.77
2019-04-23T13:03:09.821Z,19.10
2019-04-23T13:05:32.782Z,19.42
2019-04-23T13:08:26.898Z,19.20
2019-04-23T13:10:48.069Z,18.78
2019-04-23T13:15:53.703Z,19.99
2019-04-23T13:18:31.641Z,18.70
2019-04-23T13:21:01.507Z,19.32
2019-04-23T13:25:59.568Z,19.52
2019-04-23T13:28:37.666Z,19.28
2019-04-23T13:31:12.498Z,18.77
2019-04-23T13:33:44.123Z,19.28
2019-04-23T13:36:29.091Z,19.27
2019-04-23T13:41:20.400Z,19.15
2019-04-23T13:43:47.883Z,19.05
2019-04-23T13:46:32.465Z,19.46
2019-04-23T13:49:03.897Z,19.44
2019-04-23T13:51:33.825Z,19.49
2019-04-23T13:54:08.174Z,19.47
2019-04-23T13:59:36.812Z,20.08
2019-04-23T14:02:10.760Z,18.87
2019-04-23T14:07:05.853Z,19.57
2019-04-23T14:12:17.681Z,20.26
2019-04-23T14:14:55.948Z,19.43
2019-04-23T14:17:38.045Z,19.53
2019-04-23T14:20:05.050Z,19.44
2019-04-23T14:22:52.600Z,19.33
2019-04-23T14:27:43.336Z,19.40
2019-04-23T14:32:48.703Z,19.79
2019-04-23T14:35:40.535Z,19.63
2019-04-23T14:38:11.323Z,19.74
2019-04-23T14:40:34.347Z,20.00
2019-04-23T14:43:06.727Z,20.01
2019-04-23T14:46:02.596Z,19.60
2019-04-23T14:48:08.902Z,19.94
2019-04-23T14:50:41.243Z,20.19
2019-04-23T14:53:24.459Z,20.27
2019-04-23T15:01:24.425Z,20.82
2019-04-23T15:03:49.009Z,20.12
2019-04-23T15:06:26.118Z,20.22
2019-04-23T15:09:00.649Z,20.56
2019-04-23T15:13:49.431Z,20.73
2019-04-23T15:22:05.306Z,20.60
2019-04-23T15:24:19.433Z,21.05
2019-04-23T15:29:02.913Z,21.26
2019-04-23T15:32:03.070Z,20.99
2019-04-23T15:34:23.577Z,20.89
2019-04-23T15:37:15.664Z,20.73
2019-04-23T15:39:42.550Z,20.92
2019-04-23T15:44:41.912Z,21.61
2019-04-23T15:47:19.944Z,22.03
2019-04-23T15:49:55.491Z,22.10
2019-04-23T15:52:30.345Z,22.74
2019-04-23T15:54:56.749Z,23.07
2019-04-23T15:58:01.633Z,22.42
2019-04-23T15:59:58.712Z,22.63
2019-04-23T16:02:08.397Z,22.86
2019-04-23T16:04:39.920Z,23.20
2019-04-23T16:07:21.502Z,23.42
2019-04-23T16:10:14.512Z,23.92
2019-04-23T16:12:54.821Z,23.96
2019-04-23T16:15:19.345Z,24.46
2019-04-23T16:17:53.423Z,24.83
2019-04-23T16:20:37.498Z,25.49
2019-04-23T16:22:59.318Z,26.09
2019-04-23T16:25:26.525Z,26.32
2019-04-23T16:28:12.863Z,26.66
2019-04-23T16:30:40.808Z,26.64
2019-04-23T16:33:11.268Z,26.86
2019-04-23T16:38:36.678Z,27.76
2019-04-23T16:40:58.917Z,28.35
2019-04-23T16:43:27.921Z,28.46
2019-04-23T16:46:13.119Z,28.36
2019-04-23T16:48:49.242Z,29.29
2019-04-23T16:53:59.166Z,30.43
2019-04-23T16:59:12.447Z,29.62
2019-04-23T17:01:30.335Z,29.85
2019-04-23T17:04:11.016Z,29.82
2019-04-23T17:06:46.589Z,29.58
2019-04-23T17:09:18.539Z,29.59
2019-04-23T17:14:33.590Z,30.01
2019-04-23T17:16:49.884Z,30.22
2019-04-23T17:22:04.004Z,30.87
2019-04-23T17:24:56.493Z,31.02
2019-04-23T17:27:16.659Z,31.50
2019-04-23T17:29:41.546Z,31.84
2019-04-23T17:32:14.939Z,32.09
2019-04-23T17:35:20.687Z,32.58
2019-04-23T17:37:38.622Z,32.31
2019-04-23T17:40:18.165Z,32.44
2019-04-23T17:42:56.982Z,32.02
2019-04-23T17:48:13.485Z,31.66
2019-04-23T17:53:35.269Z,31.21
2019-04-23T17:56:03.690Z,31.62
2019-04-23T18:03:45.599Z,31.02
2019-04-23T18:06:21.593Z,31.18
2019-04-23T18:08:43.206Z,31.43
2019-04-23T18:13:50.452Z,31.58
2019-04-23T18:16:35.073Z,31.35
2019-04-23T18:19:03.337Z,31.66
2019-04-23T18:21:44.002Z,32.38
2019-04-23T18:24:16.714Z,31.68
2019-04-23T18:26:47.068Z,32.33
2019-04-23T18:29:31.628Z,32.58
2019-04-23T18:32:05.857Z,33.31
2019-04-23T18:34:56.921Z,33.35
2019-04-23T18:37:17.936Z,32.96
2019-04-23T18:39:49.943Z,33.41
2019-04-23T18:42:29.652Z,33.60
2019-04-23T18:45:07.780Z,33.64
2019-04-23T18:47:37.813Z,33.80
2019-04-23T18:50:22.984Z,34.38
2019-04-23T18:52:49.837Z,33.78
2019-04-23T18:55:14.571Z,33.29
2019-04-23T18:57:46.938Z,33.66
2019-04-23T19:00:24.919Z,34.18
2019-04-23T19:02:55.102Z,34.62
2019-04-23T19:08:10.655Z,34.52
2019-04-23T19:10:48.657Z,33.29
2019-04-23T19:13:25.522Z,34.30
2019-04-23T19:15:48.797Z,34.46
2019-04-23T19:18:35.625Z,35.37
2019-04-23T19:21:08.703Z,35.20
2019-04-23T19:23:42.835Z,34.90
2019-04-23T19:26:07.986Z,34.78
2019-04-23T19:34:02.913Z,34.35
2019-04-23T19:36:40.167Z,34.91
2019-04-23T19:39:11.836Z,34.93
2019-04-23T19:41:57.496Z,34.91
2019-04-23T19:46:57.627Z,34.75
2019-04-23T19:54:39.338Z,35.27
2019-04-23T20:02:07.371Z,35.46
2019-04-23T20:07:22.742Z,34.20
2019-04-23T20:12:13.492Z,34.42
2019-04-23T20:14:52.173Z,35.11
2019-04-23T20:20:18.387Z,34.69
2019-04-23T20:22:48.963Z,34.98
2019-04-23T20:25:43.863Z,35.49
2019-04-23T20:27:58.325Z,35.15
2019-04-23T20:35:56.649Z,34.75
2019-04-23T20:41:14.682Z,34.65
2019-04-23T20:43:50.038Z,34.49
2019-04-23T20:46:14.811Z,33.96
2019-04-23T20:48:53.686Z,34.03
2019-04-23T20:51:24.494Z,33.87
2019-04-23T20:53:59.788Z,34.38
2019-04-23T20:56:34.045Z,33.79
2019-04-23T20:59:03.054Z,33.48
2019-04-23T21:01:46.744Z,32.72
2019-04-23T21:04:13.263Z,32.07
2019-04-23T21:12:29.648Z,32.07
2019-04-23T21:14:55.728Z,31.86
2019-04-23T21:17:05.345Z,31.12
2019-04-23T21:19:50.450Z,31.08
2019-04-23T21:24:53.116Z,30.28
2019-04-23T21:27:38.692Z,31.22
2019-04-23T21:30:06.781Z,30.47
2019-04-23T21:32:56.072Z,30.86
2019-04-23T21:35:30.423Z,31.03
2019-04-23T21:37:54.099Z,30.87
2019-04-23T21:43:32.406Z,30.71
2019-04-23T21:45:56.866Z,30.58
2019-04-23T21:48:36.740Z,30.73
2019-04-23T21:50:57.544Z,30.96
2019-04-23T21:53:24.259Z,31.04
2019-04-23T21:56:05.601Z,30.98
2019-04-23T21:58:38.908Z,31.02
2019-04-23T22:01:27.463Z,31.32
2019-04-23T22:04:13.218Z,31.16
2019-04-23T22:19:14.937Z,31.00
2019-04-23T22:24:11.957Z,30.43
2019-04-23T22:26:45.313Z,30.37
2019-04-23T22:29:26.064Z,30.15
2019-04-23T22:32:04.399Z,29.68
2019-04-23T22:34:30.889Z,30.25
2019-04-23T22:37:10.972Z,30.67
2019-04-23T22:39:35.620Z,30.15
2019-04-23T22:42:22.364Z,30.00
2019-04-23T22:47:07.154Z,30.53
2019-04-23T22:50:06.129Z,30.06
2019-04-23T22:52:23.007Z,30.54
2019-04-23T22:55:02.390Z,30.28
2019-04-23T23:00:14.394Z,30.58
2019-04-23T23:03:11.666Z,31.21
2019-04-23T23:08:11.518Z,30.86
2019-04-23T23:10:39.608Z,30.75
2019-04-23T23:13:15.091Z,31.33
2019-04-23T23:18:19.814Z,33.38
2019-04-23T23:21:04.093Z,34.35
2019-04-23T23:26:14.221Z,35.17
2019-04-23T23:28:41.110Z,36.45
2019-04-23T23:31:10.030Z,37.32
2019-04-23T23:33:47.177Z,37.75
2019-04-23T23:41:26.512Z,39.95
2019-04-23T23:44:20.821Z,40.41
2019-04-23T23:46:37.590Z,40.86
2019-04-23T23:49:11.423Z,41.47
2019-04-23T23:54:13.991Z,42.32
2019-04-23T23:57:07.927Z,42.53
2019-04-23T23:59:26.935Z,42.68
